sensor_id;sensor_type;location;lat;lon;timestamp;P1;durP1;ratioP1;P2;durP2;ratioP2
57663;SDS011;43493;53.098;6.064;2023-07-29T00:01:31;10.57;;;8.73;;
57663;SDS011;43493;53.098;6.064;2023-07-29T00:03:57;11.43;;;9.03;;
57663;SDS011;43493;53.098;6.064;2023-07-29T00:06:23;13.27;;;9.60;;
57663;SDS011;43493;53.098;6.064;2023-07-29T00:08:49;13.47;;;9.63;;
57663;SDS011;43493;53.098;6.064;2023-07-29T00:11:15;11.30;;;9.97;;
57663;SDS011;43493;53.098;6.064;2023-07-29T00:13:40;11.87;;;10.23;;
57663;SDS011;43493;53.098;6.064;2023-07-29T00:16:06;12.13;;;10.10;;
57663;SDS011;43493;53.098;6.064;2023-07-29T00:18:32;12.20;;;9.43;;
57663;SDS011;43493;53.098;6.064;2023-07-29T00:20:58;11.93;;;10.23;;
57663;SDS011;43493;53.098;6.064;2023-07-29T00:23:23;13.50;;;10.07;;
57663;SDS011;43493;53.098;6.064;2023-07-29T00:25:49;12.23;;;10.93;;
57663;SDS011;43493;53.098;6.064;2023-07-29T00:28:15;13.90;;;11.20;;
57663;SDS011;43493;53.098;6.064;2023-07-29T00:30:41;12.03;;;9.80;;
57663;SDS011;43493;53.098;6.064;2023-07-29T00:33:06;12.27;;;10.27;;
57663;SDS011;43493;53.098;6.064;2023-07-29T00:35:33;14.43;;;10.90;;
57663;SDS011;43493;53.098;6.064;2023-07-29T00:37:59;13.47;;;10.03;;
57663;SDS011;43493;53.098;6.064;2023-07-29T00:40:25;12.37;;;9.97;;
57663;SDS011;43493;53.098;6.064;2023-07-29T00:42:53;13.50;;;11.17;;
57663;SDS011;43493;53.098;6.064;2023-07-29T00:45:19;13.07;;;11.00;;
57663;SDS011;43493;53.098;6.064;2023-07-29T00:47:45;12.27;;;10.87;;
57663;SDS011;43493;53.098;6.064;2023-07-29T00:50:11;12.10;;;10.13;;
57663;SDS011;43493;53.098;6.064;2023-07-29T00:52:39;12.97;;;10.83;;
57663;SDS011;43493;53.098;6.064;2023-07-29T00:55:05;12.07;;;10.60;;
57663;SDS011;43493;53.098;6.064;2023-07-29T00:57:32;14.40;;;11.77;;
57663;SDS011;43493;53.098;6.064;2023-07-29T00:59:59;14.63;;;11.13;;
57663;SDS011;43493;53.098;6.064;2023-07-29T01:02:25;11.77;;;10.50;;
57663;SDS011;43493;53.098;6.064;2023-07-29T01:04:55;14.03;;;10.00;;
57663;SDS011;43493;53.098;6.064;2023-07-29T01:07:27;11.37;;;10.17;;
57663;SDS011;43493;53.098;6.064;2023-07-29T01:10:03;14.83;;;10.67;;
57663;SDS011;43493;53.098;6.064;2023-07-29T01:15:28;11.70;;;10.50;;
57663;SDS011;43493;53.098;6.064;2023-07-29T01:18:05;14.13;;;10.90;;
57663;SDS011;43493;53.098;6.064;2023-07-29T01:20:34;12.33;;;10.53;;
57663;SDS011;43493;53.098;6.064;2023-07-29T01:23:03;14.73;;;10.57;;
57663;SDS011;43493;53.098;6.064;2023-07-29T01:25:29;12.10;;;10.80;;
57663;SDS011;43493;53.098;6.064;2023-07-29T01:27:55;15.77;;;11.37;;
57663;SDS011;43493;53.098;6.064;2023-07-29T01:30:22;13.60;;;10.33;;
57663;SDS011;43493;53.098;6.064;2023-07-29T01:32:56;12.13;;;10.33;;
57663;SDS011;43493;53.098;6.064;2023-07-29T01:35:28;13.30;;;10.77;;
57663;SDS011;43493;53.098;6.064;2023-07-29T01:38:02;11.63;;;10.43;;
57663;SDS011;43493;53.098;6.064;2023-07-29T01:40:30;13.37;;;10.20;;
57663;SDS011;43493;53.098;6.064;2023-07-29T01:42:59;13.17;;;10.63;;
57663;SDS011;43493;53.098;6.064;2023-07-29T01:45:25;11.97;;;10.60;;
57663;SDS011;43493;53.098;6.064;2023-07-29T01:47:51;13.30;;;11.17;;
57663;SDS011;43493;53.098;6.064;2023-07-29T01:50:17;14.17;;;11.33;;
57663;SDS011;43493;53.098;6.064;2023-07-29T01:52:43;14.07;;;10.20;;
57663;SDS011;43493;53.098;6.064;2023-07-29T01:55:09;11.87;;;10.33;;
57663;SDS011;43493;53.098;6.064;2023-07-29T01:57:34;12.00;;;9.43;;
57663;SDS011;43493;53.098;6.064;2023-07-29T02:00:00;12.03;;;10.20;;
57663;SDS011;43493;53.098;6.064;2023-07-29T02:02:27;14.03;;;9.77;;
57663;SDS011;43493;53.098;6.064;2023-07-29T02:04:53;10.30;;;9.17;;
57663;SDS011;43493;53.098;6.064;2023-07-29T02:07:21;11.43;;;9.77;;
57663;SDS011;43493;53.098;6.064;2023-07-29T02:09:46;10.87;;;8.80;;
57663;SDS011;43493;53.098;6.064;2023-07-29T02:12:12;11.97;;;10.00;;
57663;SDS011;43493;53.098;6.064;2023-07-29T02:14:38;11.30;;;10.17;;
57663;SDS011;43493;53.098;6.064;2023-07-29T02:17:04;11.10;;;9.40;;
57663;SDS011;43493;53.098;6.064;2023-07-29T02:19:29;11.20;;;9.63;;
57663;SDS011;43493;53.098;6.064;2023-07-29T02:21:55;11.87;;;9.57;;
57663;SDS011;43493;53.098;6.064;2023-07-29T02:24:21;11.83;;;10.17;;
57663;SDS011;43493;53.098;6.064;2023-07-29T02:26:46;11.70;;;9.70;;
57663;SDS011;43493;53.098;6.064;2023-07-29T02:29:13;11.33;;;9.10;;
57663;SDS011;43493;53.098;6.064;2023-07-29T02:31:38;12.33;;;8.33;;
57663;SDS011;43493;53.098;6.064;2023-07-29T02:34:04;10.50;;;8.67;;
57663;SDS011;43493;53.098;6.064;2023-07-29T02:36:30;15.10;;;9.17;;
57663;SDS011;43493;53.098;6.064;2023-07-29T02:38:58;10.13;;;7.97;;
57663;SDS011;43493;53.098;6.064;2023-07-29T02:41:24;11.07;;;8.90;;
57663;SDS011;43493;53.098;6.064;2023-07-29T02:43:50;11.57;;;9.33;;
57663;SDS011;43493;53.098;6.064;2023-07-29T02:46:16;10.73;;;8.90;;
57663;SDS011;43493;53.098;6.064;2023-07-29T02:48:42;10.57;;;7.90;;
57663;SDS011;43493;53.098;6.064;2023-07-29T02:51:09;12.60;;;7.87;;
57663;SDS011;43493;53.098;6.064;2023-07-29T02:53:35;11.33;;;7.77;;
57663;SDS011;43493;53.098;6.064;2023-07-29T02:56:02;9.77;;;7.37;;
57663;SDS011;43493;53.098;6.064;2023-07-29T02:58:28;12.57;;;7.30;;
57663;SDS011;43493;53.098;6.064;2023-07-29T03:01:00;9.70;;;7.30;;
57663;SDS011;43493;53.098;6.064;2023-07-29T03:03:27;10.93;;;7.67;;
57663;SDS011;43493;53.098;6.064;2023-07-29T03:06:02;9.40;;;6.87;;
57663;SDS011;43493;53.098;6.064;2023-07-29T03:08:33;9.23;;;6.17;;
57663;SDS011;43493;53.098;6.064;2023-07-29T03:11:04;11.23;;;7.30;;
57663;SDS011;43493;53.098;6.064;2023-07-29T03:13:31;9.10;;;6.63;;
57663;SDS011;43493;53.098;6.064;2023-07-29T03:16:15;9.47;;;7.13;;
57663;SDS011;43493;53.098;6.064;2023-07-29T03:18:42;8.68;;;6.63;;
57663;SDS011;43493;53.098;6.064;2023-07-29T03:21:09;8.73;;;6.57;;
57663;SDS011;43493;53.098;6.064;2023-07-29T03:23:36;10.20;;;7.20;;
57663;SDS011;43493;53.098;6.064;2023-07-29T03:26:03;8.23;;;6.97;;
57663;SDS011;43493;53.098;6.064;2023-07-29T03:28:35;9.30;;;6.67;;
57663;SDS011;43493;53.098;6.064;2023-07-29T03:31:02;10.63;;;6.87;;
57663;SDS011;43493;53.098;6.064;2023-07-29T03:33:28;8.37;;;6.27;;
57663;SDS011;43493;53.098;6.064;2023-07-29T03:35:54;8.87;;;6.33;;
57663;SDS011;43493;53.098;6.064;2023-07-29T03:38:20;9.73;;;6.57;;
57663;SDS011;43493;53.098;6.064;2023-07-29T03:40:46;10.67;;;6.40;;
57663;SDS011;43493;53.098;6.064;2023-07-29T03:43:11;9.07;;;6.73;;
57663;SDS011;43493;53.098;6.064;2023-07-29T03:45:38;12.17;;;6.50;;
57663;SDS011;43493;53.098;6.064;2023-07-29T03:48:05;10.23;;;6.03;;
57663;SDS011;43493;53.098;6.064;2023-07-29T03:50:32;8.20;;;6.23;;
57663;SDS011;43493;53.098;6.064;2023-07-29T03:53:05;12.73;;;7.23;;
57663;SDS011;43493;53.098;6.064;2023-07-29T03:55:31;8.60;;;6.60;;
57663;SDS011;43493;53.098;6.064;2023-07-29T03:57:58;10.83;;;6.67;;
57663;SDS011;43493;53.098;6.064;2023-07-29T04:00:24;9.00;;;5.90;;
57663;SDS011;43493;53.098;6.064;2023-07-29T04:02:50;10.53;;;7.23;;
57663;SDS011;43493;53.098;6.064;2023-07-29T04:05:16;9.83;;;6.27;;
57663;SDS011;43493;53.098;6.064;2023-07-29T04:07:43;10.20;;;6.27;;
57663;SDS011;43493;53.098;6.064;2023-07-29T04:10:09;11.30;;;6.80;;
57663;SDS011;43493;53.098;6.064;2023-07-29T04:12:35;8.93;;;7.03;;
57663;SDS011;43493;53.098;6.064;2023-07-29T04:15:00;11.00;;;6.33;;
57663;SDS011;43493;53.098;6.064;2023-07-29T04:17:26;8.33;;;6.10;;
57663;SDS011;43493;53.098;6.064;2023-07-29T04:19:52;10.47;;;6.07;;
57663;SDS011;43493;53.098;6.064;2023-07-29T04:22:18;8.70;;;6.53;;
57663;SDS011;43493;53.098;6.064;2023-07-29T04:24:43;8.43;;;6.53;;
57663;SDS011;43493;53.098;6.064;2023-07-29T04:27:09;8.67;;;5.80;;
57663;SDS011;43493;53.098;6.064;2023-07-29T04:29:35;8.63;;;6.17;;
57663;SDS011;43493;53.098;6.064;2023-07-29T04:32:01;8.27;;;5.80;;
57663;SDS011;43493;53.098;6.064;2023-07-29T04:34:28;13.87;;;6.17;;
57663;SDS011;43493;53.098;6.064;2023-07-29T04:36:53;8.77;;;5.70;;
57663;SDS011;43493;53.098;6.064;2023-07-29T04:39:19;8.43;;;5.90;;
57663;SDS011;43493;53.098;6.064;2023-07-29T04:41:45;8.07;;;5.37;;
57663;SDS011;43493;53.098;6.064;2023-07-29T04:44:11;9.83;;;5.73;;
57663;SDS011;43493;53.098;6.064;2023-07-29T04:46:37;10.07;;;5.10;;
57663;SDS011;43493;53.098;6.064;2023-07-29T04:49:03;7.77;;;5.70;;
57663;SDS011;43493;53.098;6.064;2023-07-29T04:51:29;7.20;;;4.80;;
57663;SDS011;43493;53.098;6.064;2023-07-29T04:53:56;9.20;;;5.30;;
57663;SDS011;43493;53.098;6.064;2023-07-29T04:56:22;11.43;;;5.47;;
57663;SDS011;43493;53.098;6.064;2023-07-29T04:58:48;8.37;;;5.07;;
57663;SDS011;43493;53.098;6.064;2023-07-29T05:01:14;9.57;;;5.60;;
57663;SDS011;43493;53.098;6.064;2023-07-29T05:03:40;9.03;;;4.80;;
57663;SDS011;43493;53.098;6.064;2023-07-29T05:06:06;9.23;;;4.77;;
57663;SDS011;43493;53.098;6.064;2023-07-29T05:08:31;8.37;;;5.10;;
57663;SDS011;43493;53.098;6.064;2023-07-29T05:10:57;7.83;;;4.80;;
57663;SDS011;43493;53.098;6.064;2023-07-29T05:13:23;8.97;;;4.93;;
57663;SDS011;43493;53.098;6.064;2023-07-29T05:15:49;8.23;;;4.63;;
57663;SDS011;43493;53.098;6.064;2023-07-29T05:18:15;8.17;;;4.23;;
57663;SDS011;43493;53.098;6.064;2023-07-29T05:20:41;9.73;;;4.43;;
57663;SDS011;43493;53.098;6.064;2023-07-29T05:23:07;8.00;;;4.33;;
57663;SDS011;43493;53.098;6.064;2023-07-29T05:25:33;9.40;;;4.73;;
57663;SDS011;43493;53.098;6.064;2023-07-29T05:28:02;5.90;;;4.03;;
57663;SDS011;43493;53.098;6.064;2023-07-29T05:30:28;7.93;;;4.13;;
57663;SDS011;43493;53.098;6.064;2023-07-29T05:33:00;8.90;;;4.57;;
57663;SDS011;43493;53.098;6.064;2023-07-29T05:35:26;7.57;;;3.70;;
57663;SDS011;43493;53.098;6.064;2023-07-29T05:37:52;9.87;;;4.53;;
57663;SDS011;43493;53.098;6.064;2023-07-29T05:40:17;8.60;;;4.23;;
57663;SDS011;43493;53.098;6.064;2023-07-29T05:42:44;8.93;;;4.37;;
57663;SDS011;43493;53.098;6.064;2023-07-29T05:45:10;7.70;;;4.60;;
57663;SDS011;43493;53.098;6.064;2023-07-29T05:47:36;10.07;;;4.73;;
57663;SDS011;43493;53.098;6.064;2023-07-29T05:50:03;9.10;;;4.20;;
57663;SDS011;43493;53.098;6.064;2023-07-29T05:52:32;7.63;;;3.93;;
57663;SDS011;43493;53.098;6.064;2023-07-29T05:54:59;7.83;;;5.10;;
57663;SDS011;43493;53.098;6.064;2023-07-29T05:57:25;8.20;;;3.90;;
57663;SDS011;43493;53.098;6.064;2023-07-29T05:59:51;7.83;;;3.93;;
57663;SDS011;43493;53.098;6.064;2023-07-29T06:02:17;8.60;;;4.50;;
57663;SDS011;43493;53.098;6.064;2023-07-29T06:04:42;7.80;;;4.13;;
57663;SDS011;43493;53.098;6.064;2023-07-29T06:07:08;8.87;;;4.13;;
57663;SDS011;43493;53.098;6.064;2023-07-29T06:09:34;8.33;;;4.17;;
57663;SDS011;43493;53.098;6.064;2023-07-29T06:12:00;7.70;;;3.77;;
57663;SDS011;43493;53.098;6.064;2023-07-29T06:14:25;9.27;;;4.23;;
57663;SDS011;43493;53.098;6.064;2023-07-29T06:16:51;11.03;;;3.77;;
57663;SDS011;43493;53.098;6.064;2023-07-29T06:19:18;7.33;;;3.30;;
57663;SDS011;43493;53.098;6.064;2023-07-29T06:21:44;10.13;;;3.63;;
57663;SDS011;43493;53.098;6.064;2023-07-29T06:24:10;11.13;;;3.50;;
57663;SDS011;43493;53.098;6.064;2023-07-29T06:26:36;10.03;;;3.70;;
57663;SDS011;43493;53.098;6.064;2023-07-29T06:29:01;8.17;;;3.70;;
57663;SDS011;43493;53.098;6.064;2023-07-29T06:31:27;9.20;;;3.20;;
57663;SDS011;43493;53.098;6.064;2023-07-29T06:33:54;7.07;;;3.37;;
57663;SDS011;43493;53.098;6.064;2023-07-29T06:36:20;11.60;;;3.67;;
57663;SDS011;43493;53.098;6.064;2023-07-29T06:38:46;8.73;;;3.53;;
57663;SDS011;43493;53.098;6.064;2023-07-29T06:41:11;10.57;;;3.73;;
57663;SDS011;43493;53.098;6.064;2023-07-29T06:43:37;9.47;;;3.63;;
57663;SDS011;43493;53.098;6.064;2023-07-29T06:46:03;8.37;;;3.40;;
57663;SDS011;43493;53.098;6.064;2023-07-29T06:48:28;9.27;;;3.60;;
57663;SDS011;43493;53.098;6.064;2023-07-29T06:50:54;9.97;;;3.90;;
57663;SDS011;43493;53.098;6.064;2023-07-29T06:53:20;11.47;;;3.47;;
57663;SDS011;43493;53.098;6.064;2023-07-29T06:55:46;9.53;;;3.50;;
57663;SDS011;43493;53.098;6.064;2023-07-29T06:58:12;9.70;;;3.07;;
57663;SDS011;43493;53.098;6.064;2023-07-29T07:00:38;9.63;;;3.37;;
57663;SDS011;43493;53.098;6.064;2023-07-29T07:03:03;10.03;;;3.67;;
57663;SDS011;43493;53.098;6.064;2023-07-29T07:05:29;7.50;;;3.17;;
57663;SDS011;43493;53.098;6.064;2023-07-29T07:07:55;11.00;;;3.70;;
57663;SDS011;43493;53.098;6.064;2023-07-29T07:10:20;9.77;;;3.93;;
57663;SDS011;43493;53.098;6.064;2023-07-29T07:12:46;9.60;;;4.00;;
57663;SDS011;43493;53.098;6.064;2023-07-29T07:15:12;8.67;;;3.50;;
57663;SDS011;43493;53.098;6.064;2023-07-29T07:17:38;11.00;;;3.70;;
57663;SDS011;43493;53.098;6.064;2023-07-29T07:20:03;8.50;;;2.97;;
57663;SDS011;43493;53.098;6.064;2023-07-29T07:22:30;8.70;;;3.20;;
57663;SDS011;43493;53.098;6.064;2023-07-29T07:24:56;7.50;;;3.07;;
57663;SDS011;43493;53.098;6.064;2023-07-29T07:27:21;8.33;;;4.23;;
57663;SDS011;43493;53.098;6.064;2023-07-29T07:29:47;11.33;;;3.27;;
57663;SDS011;43493;53.098;6.064;2023-07-29T07:32:13;11.27;;;3.93;;
57663;SDS011;43493;53.098;6.064;2023-07-29T07:34:38;8.30;;;3.00;;
57663;SDS011;43493;53.098;6.064;2023-07-29T07:37:04;7.07;;;2.60;;
57663;SDS011;43493;53.098;6.064;2023-07-29T07:39:31;8.40;;;2.70;;
57663;SDS011;43493;53.098;6.064;2023-07-29T07:41:57;9.53;;;3.00;;
57663;SDS011;43493;53.098;6.064;2023-07-29T07:44:22;8.53;;;3.20;;
57663;SDS011;43493;53.098;6.064;2023-07-29T07:46:51;7.77;;;2.57;;
57663;SDS011;43493;53.098;6.064;2023-07-29T07:49:17;8.50;;;2.93;;
57663;SDS011;43493;53.098;6.064;2023-07-29T07:51:43;6.20;;;2.63;;
57663;SDS011;43493;53.098;6.064;2023-07-29T07:54:09;8.33;;;3.00;;
57663;SDS011;43493;53.098;6.064;2023-07-29T07:56:35;7.73;;;2.90;;
57663;SDS011;43493;53.098;6.064;2023-07-29T07:59:00;5.93;;;2.40;;
57663;SDS011;43493;53.098;6.064;2023-07-29T08:01:26;7.73;;;2.33;;
57663;SDS011;43493;53.098;6.064;2023-07-29T08:03:52;6.83;;;2.93;;
57663;SDS011;43493;53.098;6.064;2023-07-29T08:06:17;8.10;;;2.50;;
57663;SDS011;43493;53.098;6.064;2023-07-29T08:08:43;9.17;;;3.07;;
57663;SDS011;43493;53.098;6.064;2023-07-29T08:11:09;10.40;;;2.70;;
57663;SDS011;43493;53.098;6.064;2023-07-29T08:13:34;6.57;;;2.83;;
57663;SDS011;43493;53.098;6.064;2023-07-29T08:16:00;8.73;;;3.10;;
57663;SDS011;43493;53.098;6.064;2023-07-29T08:18:26;7.33;;;2.93;;
57663;SDS011;43493;53.098;6.064;2023-07-29T08:21:00;7.00;;;2.57;;
57663;SDS011;43493;53.098;6.064;2023-07-29T08:23:29;6.27;;;2.50;;
57663;SDS011;43493;53.098;6.064;2023-07-29T08:25:57;9.00;;;2.63;;
57663;SDS011;43493;53.098;6.064;2023-07-29T08:28:27;6.77;;;2.57;;
57663;SDS011;43493;53.098;6.064;2023-07-29T08:30:58;5.20;;;2.10;;
57663;SDS011;43493;53.098;6.064;2023-07-29T08:33:24;8.17;;;2.77;;
57663;SDS011;43493;53.098;6.064;2023-07-29T08:35:51;8.07;;;2.50;;
57663;SDS011;43493;53.098;6.064;2023-07-29T08:38:16;6.33;;;2.47;;
57663;SDS011;43493;53.098;6.064;2023-07-29T08:40:45;6.93;;;2.70;;
57663;SDS011;43493;53.098;6.064;2023-07-29T08:43:38;4.80;;;1.80;;
57663;SDS011;43493;53.098;6.064;2023-07-29T08:46:08;6.63;;;2.27;;
57663;SDS011;43493;53.098;6.064;2023-07-29T08:48:41;6.97;;;2.03;;
57663;SDS011;43493;53.098;6.064;2023-07-29T08:51:08;6.60;;;2.20;;
57663;SDS011;43493;53.098;6.064;2023-07-29T08:53:39;9.00;;;2.20;;
57663;SDS011;43493;53.098;6.064;2023-07-29T08:56:05;8.03;;;2.57;;
57663;SDS011;43493;53.098;6.064;2023-07-29T08:58:32;7.27;;;2.23;;
57663;SDS011;43493;53.098;6.064;2023-07-29T09:00:58;6.40;;;2.40;;
57663;SDS011;43493;53.098;6.064;2023-07-29T09:03:24;5.20;;;2.00;;
57663;SDS011;43493;53.098;6.064;2023-07-29T09:05:50;6.40;;;1.90;;
57663;SDS011;43493;53.098;6.064;2023-07-29T09:08:17;8.10;;;1.93;;
57663;SDS011;43493;53.098;6.064;2023-07-29T09:10:43;5.73;;;2.10;;
57663;SDS011;43493;53.098;6.064;2023-07-29T09:13:08;6.00;;;2.00;;
57663;SDS011;43493;53.098;6.064;2023-07-29T09:15:35;6.87;;;2.03;;
57663;SDS011;43493;53.098;6.064;2023-07-29T09:18:18;8.17;;;2.00;;
57663;SDS011;43493;53.098;6.064;2023-07-29T09:20:48;5.20;;;2.23;;
57663;SDS011;43493;53.098;6.064;2023-07-29T09:23:15;6.03;;;2.50;;
57663;SDS011;43493;53.098;6.064;2023-07-29T09:25:41;7.40;;;2.00;;
57663;SDS011;43493;53.098;6.064;2023-07-29T09:28:11;7.27;;;1.93;;
57663;SDS011;43493;53.098;6.064;2023-07-29T09:30:42;5.77;;;1.90;;
57663;SDS011;43493;53.098;6.064;2023-07-29T09:33:10;5.50;;;2.20;;
57663;SDS011;43493;53.098;6.064;2023-07-29T09:35:36;6.53;;;2.13;;
57663;SDS011;43493;53.098;6.064;2023-07-29T09:38:04;6.77;;;2.03;;
57663;SDS011;43493;53.098;6.064;2023-07-29T09:40:37;8.03;;;2.53;;
57663;SDS011;43493;53.098;6.064;2023-07-29T09:43:04;6.00;;;2.10;;
57663;SDS011;43493;53.098;6.064;2023-07-29T09:45:32;8.60;;;2.50;;
57663;SDS011;43493;53.098;6.064;2023-07-29T09:48:00;7.00;;;2.20;;
57663;SDS011;43493;53.098;6.064;2023-07-29T09:50:27;6.27;;;2.60;;
57663;SDS011;43493;53.098;6.064;2023-07-29T09:52:54;4.47;;;1.87;;
57663;SDS011;43493;53.098;6.064;2023-07-29T09:55:23;7.50;;;2.47;;
57663;SDS011;43493;53.098;6.064;2023-07-29T09:57:53;7.97;;;2.67;;
57663;SDS011;43493;53.098;6.064;2023-07-29T10:00:23;5.93;;;2.40;;
57663;SDS011;43493;53.098;6.064;2023-07-29T10:02:49;6.93;;;2.53;;
57663;SDS011;43493;53.098;6.064;2023-07-29T10:05:15;7.00;;;2.47;;
57663;SDS011;43493;53.098;6.064;2023-07-29T10:07:41;7.57;;;1.90;;
57663;SDS011;43493;53.098;6.064;2023-07-29T10:10:07;6.83;;;2.33;;
57663;SDS011;43493;53.098;6.064;2023-07-29T10:12:34;7.13;;;2.20;;
57663;SDS011;43493;53.098;6.064;2023-07-29T10:15:04;6.63;;;2.33;;
57663;SDS011;43493;53.098;6.064;2023-07-29T10:17:34;4.50;;;1.80;;
57663;SDS011;43493;53.098;6.064;2023-07-29T10:20:01;7.23;;;2.57;;
57663;SDS011;43493;53.098;6.064;2023-07-29T10:22:32;7.30;;;2.50;;
57663;SDS011;43493;53.098;6.064;2023-07-29T10:25:05;7.47;;;2.30;;
57663;SDS011;43493;53.098;6.064;2023-07-29T10:27:35;10.03;;;2.23;;
57663;SDS011;43493;53.098;6.064;2023-07-29T10:30:08;7.88;;;2.30;;
57663;SDS011;43493;53.098;6.064;2023-07-29T10:32:38;10.17;;;3.77;;
57663;SDS011;43493;53.098;6.064;2023-07-29T10:35:12;16.33;;;5.00;;
57663;SDS011;43493;53.098;6.064;2023-07-29T10:37:39;9.93;;;3.40;;
57663;SDS011;43493;53.098;6.064;2023-07-29T10:40:07;5.87;;;1.97;;
57663;SDS011;43493;53.098;6.064;2023-07-29T10:42:34;6.00;;;1.80;;
57663;SDS011;43493;53.098;6.064;2023-07-29T10:45:02;8.50;;;2.47;;
57663;SDS011;43493;53.098;6.064;2023-07-29T10:47:43;7.20;;;2.60;;
57663;SDS011;43493;53.098;6.064;2023-07-29T10:50:17;8.33;;;2.77;;
57663;SDS011;43493;53.098;6.064;2023-07-29T10:52:46;9.03;;;2.70;;
57663;SDS011;43493;53.098;6.064;2023-07-29T10:55:23;10.00;;;3.00;;
57663;SDS011;43493;53.098;6.064;2023-07-29T10:57:51;7.00;;;3.10;;
57663;SDS011;43493;53.098;6.064;2023-07-29T11:00:20;7.83;;;2.77;;
57663;SDS011;43493;53.098;6.064;2023-07-29T11:03:11;8.80;;;2.40;;
57663;SDS011;43493;53.098;6.064;2023-07-29T11:05:52;7.43;;;2.60;;
57663;SDS011;43493;53.098;6.064;2023-07-29T11:08:22;5.85;;;2.58;;
57663;SDS011;43493;53.098;6.064;2023-07-29T11:13:30;7.70;;;2.50;;
57663;SDS011;43493;53.098;6.064;2023-07-29T11:15:57;6.50;;;2.30;;
57663;SDS011;43493;53.098;6.064;2023-07-29T11:18:27;5.27;;;2.33;;
57663;SDS011;43493;53.098;6.064;2023-07-29T11:20:57;7.50;;;2.70;;
57663;SDS011;43493;53.098;6.064;2023-07-29T11:23:27;7.53;;;2.40;;
57663;SDS011;43493;53.098;6.064;2023-07-29T11:26:01;10.70;;;3.00;;
57663;SDS011;43493;53.098;6.064;2023-07-29T11:28:28;5.87;;;2.50;;
57663;SDS011;43493;53.098;6.064;2023-07-29T11:30:54;5.20;;;2.70;;
57663;SDS011;43493;53.098;6.064;2023-07-29T11:33:22;6.03;;;2.67;;
57663;SDS011;43493;53.098;6.064;2023-07-29T11:35:53;6.00;;;2.63;;
57663;SDS011;43493;53.098;6.064;2023-07-29T11:38:20;5.70;;;2.80;;
57663;SDS011;43493;53.098;6.064;2023-07-29T11:40:56;6.10;;;2.53;;
57663;SDS011;43493;53.098;6.064;2023-07-29T11:43:26;7.63;;;2.77;;
57663;SDS011;43493;53.098;6.064;2023-07-29T11:45:52;6.50;;;2.80;;
57663;SDS011;43493;53.098;6.064;2023-07-29T11:48:25;5.87;;;2.43;;
57663;SDS011;43493;53.098;6.064;2023-07-29T11:50:56;6.40;;;2.63;;
57663;SDS011;43493;53.098;6.064;2023-07-29T11:53:22;6.57;;;2.87;;
57663;SDS011;43493;53.098;6.064;2023-07-29T11:55:53;6.13;;;2.60;;
57663;SDS011;43493;53.098;6.064;2023-07-29T11:58:20;5.80;;;2.40;;
57663;SDS011;43493;53.098;6.064;2023-07-29T12:00:46;8.87;;;3.20;;
57663;SDS011;43493;53.098;6.064;2023-07-29T12:03:12;7.13;;;2.47;;
57663;SDS011;43493;53.098;6.064;2023-07-29T12:05:38;8.07;;;2.80;;
57663;SDS011;43493;53.098;6.064;2023-07-29T12:08:04;7.30;;;2.60;;
57663;SDS011;43493;53.098;6.064;2023-07-29T12:10:30;7.23;;;2.20;;
57663;SDS011;43493;53.098;6.064;2023-07-29T12:12:56;6.07;;;2.03;;
57663;SDS011;43493;53.098;6.064;2023-07-29T12:15:25;8.60;;;2.50;;
57663;SDS011;43493;53.098;6.064;2023-07-29T12:17:53;5.20;;;2.20;;
57663;SDS011;43493;53.098;6.064;2023-07-29T12:20:21;9.80;;;2.33;;
57663;SDS011;43493;53.098;6.064;2023-07-29T12:22:57;6.10;;;2.33;;
57663;SDS011;43493;53.098;6.064;2023-07-29T12:25:26;7.03;;;2.67;;
57663;SDS011;43493;53.098;6.064;2023-07-29T12:27:53;5.50;;;1.90;;
57663;SDS011;43493;53.098;6.064;2023-07-29T12:30:22;8.20;;;2.63;;
57663;SDS011;43493;53.098;6.064;2023-07-29T12:32:48;6.60;;;2.33;;
57663;SDS011;43493;53.098;6.064;2023-07-29T12:35:14;4.87;;;2.10;;
57663;SDS011;43493;53.098;6.064;2023-07-29T12:37:39;5.90;;;2.53;;
57663;SDS011;43493;53.098;6.064;2023-07-29T12:40:09;7.13;;;2.33;;
57663;SDS011;43493;53.098;6.064;2023-07-29T12:42:55;4.67;;;2.10;;
57663;SDS011;43493;53.098;6.064;2023-07-29T12:45:21;5.13;;;2.07;;
57663;SDS011;43493;53.098;6.064;2023-07-29T12:47:52;8.10;;;2.47;;
57663;SDS011;43493;53.098;6.064;2023-07-29T12:50:18;6.43;;;2.17;;
57663;SDS011;43493;53.098;6.064;2023-07-29T12:52:43;6.83;;;2.77;;
57663;SDS011;43493;53.098;6.064;2023-07-29T12:55:09;6.90;;;2.57;;
57663;SDS011;43493;53.098;6.064;2023-07-29T12:57:38;9.07;;;2.40;;
57663;SDS011;43493;53.098;6.064;2023-07-29T13:00:06;8.03;;;2.57;;
57663;SDS011;43493;53.098;6.064;2023-07-29T13:02:34;6.83;;;2.50;;
57663;SDS011;43493;53.098;6.064;2023-07-29T13:04:59;6.67;;;2.20;;
57663;SDS011;43493;53.098;6.064;2023-07-29T13:07:25;7.30;;;2.40;;
57663;SDS011;43493;53.098;6.064;2023-07-29T13:09:51;6.77;;;2.10;;
57663;SDS011;43493;53.098;6.064;2023-07-29T13:12:17;6.63;;;2.50;;
57663;SDS011;43493;53.098;6.064;2023-07-29T13:14:42;9.07;;;2.53;;
57663;SDS011;43493;53.098;6.064;2023-07-29T13:17:08;7.13;;;3.10;;
57663;SDS011;43493;53.098;6.064;2023-07-29T13:19:34;6.07;;;2.50;;
57663;SDS011;43493;53.098;6.064;2023-07-29T13:21:59;7.60;;;2.80;;
57663;SDS011;43493;53.098;6.064;2023-07-29T13:24:27;5.63;;;2.40;;
57663;SDS011;43493;53.098;6.064;2023-07-29T13:26:53;5.73;;;2.67;;
57663;SDS011;43493;53.098;6.064;2023-07-29T13:29:18;6.87;;;2.50;;
57663;SDS011;43493;53.098;6.064;2023-07-29T13:31:44;9.70;;;3.00;;
57663;SDS011;43493;53.098;6.064;2023-07-29T13:34:10;9.07;;;3.23;;
57663;SDS011;43493;53.098;6.064;2023-07-29T13:36:36;6.67;;;2.27;;
57663;SDS011;43493;53.098;6.064;2023-07-29T13:39:01;4.97;;;2.27;;
57663;SDS011;43493;53.098;6.064;2023-07-29T13:41:28;6.17;;;2.47;;
57663;SDS011;43493;53.098;6.064;2023-07-29T13:43:53;5.10;;;2.27;;
57663;SDS011;43493;53.098;6.064;2023-07-29T13:46:19;6.50;;;2.80;;
57663;SDS011;43493;53.098;6.064;2023-07-29T13:48:46;7.80;;;2.57;;
57663;SDS011;43493;53.098;6.064;2023-07-29T13:51:12;7.40;;;2.60;;
57663;SDS011;43493;53.098;6.064;2023-07-29T13:53:37;7.80;;;2.30;;
57663;SDS011;43493;53.098;6.064;2023-07-29T13:56:04;5.50;;;2.67;;
57663;SDS011;43493;53.098;6.064;2023-07-29T13:58:30;7.27;;;2.90;;
57663;SDS011;43493;53.098;6.064;2023-07-29T14:00:55;8.87;;;3.33;;
57663;SDS011;43493;53.098;6.064;2023-07-29T14:03:21;6.60;;;2.00;;
57663;SDS011;43493;53.098;6.064;2023-07-29T14:05:47;5.37;;;2.00;;
57663;SDS011;43493;53.098;6.064;2023-07-29T14:08:13;5.43;;;2.00;;
57663;SDS011;43493;53.098;6.064;2023-07-29T14:10:38;5.47;;;1.70;;
57663;SDS011;43493;53.098;6.064;2023-07-29T14:13:04;5.50;;;2.20;;
57663;SDS011;43493;53.098;6.064;2023-07-29T14:15:30;6.60;;;2.40;;
57663;SDS011;43493;53.098;6.064;2023-07-29T14:17:57;5.30;;;2.07;;
57663;SDS011;43493;53.098;6.064;2023-07-29T14:20:23;7.50;;;2.17;;
57663;SDS011;43493;53.098;6.064;2023-07-29T14:22:49;4.90;;;2.00;;
57663;SDS011;43493;53.098;6.064;2023-07-29T14:25:15;6.73;;;2.27;;
57663;SDS011;43493;53.098;6.064;2023-07-29T14:27:41;6.07;;;1.97;;
57663;SDS011;43493;53.098;6.064;2023-07-29T14:30:06;7.10;;;2.20;;
57663;SDS011;43493;53.098;6.064;2023-07-29T14:32:33;7.37;;;2.10;;
57663;SDS011;43493;53.098;6.064;2023-07-29T14:34:59;7.23;;;2.50;;
57663;SDS011;43493;53.098;6.064;2023-07-29T14:37:29;5.63;;;1.90;;
57663;SDS011;43493;53.098;6.064;2023-07-29T14:39:56;7.00;;;1.80;;
57663;SDS011;43493;53.098;6.064;2023-07-29T14:42:24;6.77;;;1.97;;
57663;SDS011;43493;53.098;6.064;2023-07-29T14:44:50;6.10;;;1.77;;
57663;SDS011;43493;53.098;6.064;2023-07-29T14:47:16;6.37;;;1.87;;
57663;SDS011;43493;53.098;6.064;2023-07-29T14:49:43;5.10;;;2.10;;